createdAt,value
2022-10-22T00:02:21.892Z,9.30
2022-10-22T00:04:54.023Z,13.00
2022-10-22T00:07:25.747Z,10.00
2022-10-22T00:09:57.145Z,10.20
2022-10-22T00:12:34.235Z,9.00
2022-10-22T00:15:07.158Z,10.90
2022-10-22T00:17:39.540Z,10.70
2022-10-22T00:20:13.518Z,11.70
2022-10-22T00:22:45.061Z,9.40
2022-10-22T00:25:20.317Z,10.60
2022-10-22T00:27:51.789Z,11.30
2022-10-22T00:30:23.402Z,9.70
2022-10-22T00:32:54.860Z,11.40
2022-10-22T00:35:26.849Z,12.80
2022-10-22T00:37:58.296Z,9.90
2022-10-22T00:40:29.790Z,10.30
2022-10-22T00:43:01.265Z,9.90
2022-10-22T00:45:33.237Z,10.50
2022-10-22T00:48:10.395Z,12.10
2022-10-22T00:50:47.442Z,10.10
2022-10-22T00:53:21.382Z,10.00
2022-10-22T00:58:28.667Z,11.20
2022-10-22T01:01:00.949Z,8.80
2022-10-22T01:03:34.157Z,11.80
2022-10-22T01:06:07.152Z,9.50
2022-10-22T01:08:52.011Z,7.80
2022-10-22T01:11:30.417Z,10.10
2022-10-22T01:14:14.414Z,12.30
2022-10-22T01:19:44.362Z,10.80
2022-10-22T01:22:21.905Z,11.70
2022-10-22T01:25:06.472Z,9.40
2022-10-22T01:27:54.960Z,11.60
2022-10-22T01:30:27.958Z,10.80
2022-10-22T01:33:04.731Z,9.50
2022-10-22T01:35:42.964Z,9.70
2022-10-22T01:38:20.214Z,13.40
2022-10-22T01:40:54.627Z,9.60
2022-10-22T01:43:26.459Z,11.40
2022-10-22T01:46:03.217Z,11.80
2022-10-22T01:48:45.530Z,10.10
2022-10-22T01:51:39.958Z,10.90
2022-10-22T01:54:23.964Z,11.30
2022-10-22T01:59:44.753Z,10.10
2022-10-22T02:02:30.738Z,11.20
2022-10-22T02:05:06.633Z,10.90
2022-10-22T02:07:43.847Z,11.70
2022-10-22T02:10:18.859Z,11.70
2022-10-22T02:12:54.823Z,10.30
2022-10-22T02:15:28.677Z,13.30
2022-10-22T02:18:01.441Z,11.80
2022-10-22T02:20:36.458Z,11.60
2022-10-22T02:23:09.954Z,10.70
2022-10-22T02:25:45.884Z,10.70
2022-10-22T02:28:25.771Z,12.20
2022-10-22T02:31:10.420Z,11.50
2022-10-22T02:33:46.804Z,14.70
2022-10-22T02:36:20.184Z,13.00
2022-10-22T02:38:53.683Z,11.10
2022-10-22T02:41:25.465Z,10.20
2022-10-22T02:43:58.107Z,11.90
2022-10-22T02:46:29.687Z,11.60
2022-10-22T02:49:01.185Z,9.90
2022-10-22T02:51:32.610Z,10.10
2022-10-22T02:54:04.240Z,11.00
2022-10-22T02:56:35.702Z,10.80
2022-10-22T02:59:07.251Z,10.00
2022-10-22T03:01:38.730Z,12.10
2022-10-22T03:04:10.317Z,10.50
2022-10-22T03:06:43.952Z,11.60
2022-10-22T03:09:18.153Z,13.90
2022-10-22T03:11:51.468Z,12.30
2022-10-22T03:14:23.111Z,11.00
2022-10-22T03:16:55.274Z,10.40
2022-10-22T03:19:28.863Z,11.70
2022-10-22T03:22:06.668Z,9.80
2022-10-22T03:24:42.236Z,12.40
2022-10-22T03:27:16.119Z,13.10
2022-10-22T03:29:47.981Z,10.60
2022-10-22T03:32:19.683Z,11.30
2022-10-22T03:34:51.203Z,12.80
2022-10-22T03:37:24.333Z,10.60
2022-10-22T03:39:56.688Z,12.20
2022-10-22T03:42:28.834Z,11.70
2022-10-22T03:45:00.206Z,16.30
2022-10-22T03:47:31.657Z,13.10
2022-10-22T03:50:03.235Z,13.20
2022-10-22T03:52:39.850Z,13.50
2022-10-22T03:55:13.134Z,11.80
2022-10-22T03:57:44.620Z,11.40
2022-10-22T04:00:17.425Z,13.40
2022-10-22T04:02:48.900Z,14.60
2022-10-22T04:05:20.402Z,14.30
2022-10-22T04:07:51.818Z,15.40
2022-10-22T04:10:23.284Z,14.00
2022-10-22T04:12:54.804Z,14.00
2022-10-22T04:15:29.390Z,12.70
2022-10-22T04:18:00.842Z,14.10
2022-10-22T04:20:32.236Z,15.60
2022-10-22T04:23:03.739Z,14.60
2022-10-22T04:25:35.210Z,11.60
2022-10-22T04:28:10.063Z,13.60
2022-10-22T04:30:41.588Z,13.50
2022-10-22T04:33:13.133Z,16.50
2022-10-22T04:35:44.648Z,15.00
2022-10-22T04:38:16.635Z,14.20
2022-10-22T04:40:48.103Z,14.00
2022-10-22T04:43:19.564Z,12.60
2022-10-22T04:45:51.020Z,14.60
2022-10-22T04:48:22.628Z,11.60
2022-10-22T04:50:54.006Z,13.00
2022-10-22T04:53:25.463Z,10.60
2022-10-22T04:55:56.966Z,12.70
2022-10-22T04:58:28.371Z,14.80
2022-10-22T05:01:00.857Z,14.00
2022-10-22T05:03:32.369Z,12.60
2022-10-22T05:06:04.899Z,12.90
2022-10-22T05:08:36.561Z,16.40
2022-10-22T05:11:15.651Z,11.40
2022-10-22T05:13:48.139Z,17.30
2022-10-22T05:16:19.584Z,15.00
2022-10-22T05:18:51.016Z,15.10
2022-10-22T05:21:23.793Z,15.40
2022-10-22T05:23:56.329Z,11.20
2022-10-22T05:26:29.636Z,12.70
2022-10-22T05:29:01.089Z,10.20
2022-10-22T05:31:32.704Z,12.60
2022-10-22T05:34:04.429Z,15.10
2022-10-22T05:36:35.952Z,13.90
2022-10-22T05:39:08.137Z,16.10
2022-10-22T05:41:39.754Z,15.30
2022-10-22T05:44:14.180Z,24.60
2022-10-22T05:46:46.892Z,31.20
2022-10-22T05:49:19.207Z,39.60
2022-10-22T05:51:50.748Z,42.40
2022-10-22T05:54:23.236Z,45.20
2022-10-22T05:56:56.296Z,44.00
2022-10-22T05:59:27.808Z,42.00
2022-10-22T06:01:59.231Z,31.80
2022-10-22T06:04:30.671Z,28.30
2022-10-22T06:07:03.063Z,27.80
2022-10-22T06:09:40.853Z,15.70
2022-10-22T06:12:13.831Z,17.70
2022-10-22T06:14:45.312Z,18.40
2022-10-22T06:17:19.722Z,14.50
2022-10-22T06:19:51.118Z,20.50
2022-10-22T06:22:22.526Z,15.10
2022-10-22T06:24:54.467Z,14.20
2022-10-22T06:27:25.964Z,13.60
2022-10-22T06:29:57.401Z,13.80
2022-10-22T06:32:28.778Z,12.00
2022-10-22T06:35:00.165Z,13.30
2022-10-22T06:37:31.676Z,12.90
2022-10-22T06:40:03.065Z,12.40
2022-10-22T06:42:34.662Z,11.90
2022-10-22T06:45:08.020Z,13.30
2022-10-22T06:47:40.213Z,14.80
2022-10-22T06:50:12.999Z,12.50
2022-10-22T06:52:44.604Z,11.70
2022-10-22T06:55:16.146Z,11.60
2022-10-22T06:57:47.550Z,11.80
2022-10-22T07:00:19.822Z,12.00
2022-10-22T07:02:57.696Z,12.60
2022-10-22T07:05:30.807Z,11.60
2022-10-22T07:08:02.306Z,13.00
2022-10-22T07:10:33.747Z,12.40
2022-10-22T07:13:05.301Z,13.30
2022-10-22T07:15:36.695Z,12.50
2022-10-22T07:18:08.337Z,10.10
2022-10-22T07:20:41.194Z,12.30
2022-10-22T07:23:12.642Z,13.30
2022-10-22T07:25:44.764Z,12.60
2022-10-22T07:28:16.268Z,12.40
2022-10-22T07:30:48.069Z,9.80
2022-10-22T07:33:19.542Z,13.50
2022-10-22T07:35:51.060Z,13.10
2022-10-22T07:38:22.489Z,12.10
2022-10-22T07:40:53.954Z,13.80
2022-10-22T07:43:25.504Z,13.20
2022-10-22T07:45:56.918Z,9.60
2022-10-22T07:48:28.546Z,11.10
2022-10-22T07:51:00.565Z,11.70
2022-10-22T07:53:32.249Z,12.50
2022-10-22T07:56:04.547Z,12.40
2022-10-22T07:58:36.710Z,13.10
2022-10-22T08:01:08.539Z,11.40
2022-10-22T08:03:40.337Z,13.20
2022-10-22T08:06:14.337Z,12.70
2022-10-22T08:08:46.745Z,13.70
2022-10-22T08:11:18.455Z,14.00
2022-10-22T08:13:49.839Z,11.50
2022-10-22T08:16:21.473Z,14.90
2022-10-22T08:18:53.344Z,12.10
2022-10-22T08:21:25.099Z,14.60
2022-10-22T08:23:56.700Z,13.50
2022-10-22T08:26:28.893Z,12.50
2022-10-22T08:29:00.392Z,13.60
2022-10-22T08:31:32.000Z,12.80
2022-10-22T08:34:05.686Z,12.10
2022-10-22T08:36:37.143Z,13.00
2022-10-22T08:39:08.619Z,14.00
2022-10-22T08:41:53.796Z,11.50
2022-10-22T08:44:50.123Z,11.90
2022-10-22T08:47:38.989Z,10.50
2022-10-22T08:50:17.895Z,13.60
2022-10-22T08:52:58.211Z,11.40
2022-10-22T08:55:36.515Z,12.50
2022-10-22T08:58:21.119Z,13.40
2022-10-22T09:01:00.903Z,13.50
2022-10-22T09:03:46.687Z,11.90
2022-10-22T09:06:23.067Z,15.30
2022-10-22T09:08:58.147Z,11.60
2022-10-22T09:11:34.476Z,14.10
2022-10-22T09:14:08.019Z,13.40
2022-10-22T09:16:54.959Z,14.40
2022-10-22T09:19:35.795Z,14.20
2022-10-22T09:22:23.733Z,14.30
2022-10-22T09:24:59.959Z,14.50
2022-10-22T09:27:32.653Z,15.70
2022-10-22T09:30:04.680Z,11.00
2022-10-22T09:32:36.134Z,13.10
2022-10-22T09:35:13.378Z,12.80
2022-10-22T09:37:52.551Z,13.10
2022-10-22T09:40:24.635Z,16.10
2022-10-22T09:42:56.044Z,14.90
2022-10-22T09:45:29.198Z,13.40
2022-10-22T09:48:13.939Z,13.10
2022-10-22T09:50:48.190Z,12.80
2022-10-22T09:53:23.501Z,16.40
2022-10-22T09:55:57.756Z,14.90
2022-10-22T09:58:30.102Z,13.80
2022-10-22T10:01:04.530Z,15.60
2022-10-22T10:03:35.923Z,14.80
2022-10-22T10:06:08.366Z,16.40
2022-10-22T10:08:40.066Z,15.50
2022-10-22T10:11:20.258Z,13.40
2022-10-22T10:13:59.447Z,15.30
2022-10-22T10:16:44.460Z,20.30
2022-10-22T10:19:38.928Z,13.80
2022-10-22T10:22:25.499Z,16.40
2022-10-22T10:25:29.032Z,15.40
2022-10-22T10:28:13.430Z,13.30
2022-10-22T10:30:53.422Z,21.40
2022-10-22T10:33:35.165Z,17.10
2022-10-22T10:36:18.003Z,17.30
2022-10-22T10:39:13.918Z,15.40
2022-10-22T10:41:57.566Z,20.00
2022-10-22T10:44:42.117Z,18.00
2022-10-22T10:47:46.875Z,17.80
2022-10-22T10:50:26.926Z,16.50
2022-10-22T10:53:12.348Z,17.60
2022-10-22T10:55:55.015Z,16.50
2022-10-22T10:58:35.830Z,17.00
2022-10-22T11:01:21.128Z,17.00
2022-10-22T11:04:08.504Z,17.40
2022-10-22T11:06:40.953Z,18.60
2022-10-22T11:09:25.893Z,14.40
2022-10-22T11:12:01.912Z,18.80
2022-10-22T11:14:41.337Z,17.30
2022-10-22T11:17:17.072Z,19.60
2022-10-22T11:19:59.897Z,20.30
2022-10-22T11:22:42.168Z,20.90
2022-10-22T11:25:23.293Z,21.60
2022-10-22T11:28:04.668Z,21.50
2022-10-22T11:30:41.977Z,19.80
2022-10-22T11:33:19.406Z,22.50
2022-10-22T11:42:20.452Z,19.60
2022-10-22T11:45:02.575Z,21.90
2022-10-22T11:47:36.553Z,22.20
2022-10-22T11:50:25.985Z,19.60
2022-10-22T11:53:05.271Z,23.10
2022-10-22T11:55:52.517Z,22.20
2022-10-22T11:58:33.269Z,23.20
2022-10-22T12:01:26.288Z,22.20
2022-10-22T12:04:21.407Z,26.40
2022-10-22T12:06:59.259Z,23.90
2022-10-22T12:09:34.398Z,24.00
2022-10-22T12:12:15.375Z,24.00
2022-10-22T12:14:59.364Z,21.30
2022-10-22T12:17:32.369Z,22.80
2022-10-22T12:20:08.849Z,20.10
2022-10-22T12:22:41.312Z,21.10
2022-10-22T12:25:22.145Z,20.30
2022-10-22T12:27:57.197Z,20.70
2022-10-22T12:30:31.487Z,19.30
2022-10-22T12:33:06.480Z,17.00
2022-10-22T12:35:52.010Z,20.90
2022-10-22T12:38:25.628Z,21.60
2022-10-22T12:40:59.222Z,19.20
2022-10-22T12:43:33.527Z,19.10
2022-10-22T12:46:05.365Z,16.50
2022-10-22T12:48:41.529Z,16.00
2022-10-22T12:51:20.229Z,14.60
2022-10-22T12:53:55.176Z,16.30
2022-10-22T12:56:30.037Z,16.60
2022-10-22T12:59:05.132Z,19.50
2022-10-22T13:01:39.910Z,20.20
2022-10-22T13:04:23.245Z,20.40
2022-10-22T13:07:08.164Z,20.10
2022-10-22T13:09:44.993Z,19.30
2022-10-22T13:12:25.528Z,19.60
2022-10-22T13:14:56.998Z,18.50
2022-10-22T13:17:44.037Z,19.80
2022-10-22T13:20:22.393Z,20.10
2022-10-22T13:23:00.433Z,16.80
2022-10-22T13:25:33.594Z,20.50
2022-10-22T13:28:19.666Z,18.40
2022-10-22T13:30:57.914Z,15.60
2022-10-22T13:33:33.461Z,17.40
2022-10-22T13:36:06.429Z,18.20
2022-10-22T13:38:38.019Z,18.50
2022-10-22T13:41:22.477Z,16.00
2022-10-22T13:43:55.241Z,17.10
2022-10-22T13:46:29.432Z,18.50
2022-10-22T13:49:01.564Z,19.30
2022-10-22T13:51:36.761Z,18.50
2022-10-22T13:54:16.329Z,19.50
2022-10-22T13:56:48.271Z,16.30
2022-10-22T13:59:22.863Z,17.40
2022-10-22T14:01:57.230Z,18.90
2022-10-22T14:04:28.760Z,18.00
2022-10-22T14:07:02.870Z,16.70
2022-10-22T14:09:35.782Z,14.90
2022-10-22T14:12:14.140Z,17.30
2022-10-22T14:14:45.714Z,18.80
2022-10-22T14:17:19.460Z,18.00
2022-10-22T14:19:51.975Z,17.10
2022-10-22T14:22:26.171Z,19.40
2022-10-22T14:24:57.721Z,16.70
2022-10-22T14:27:29.264Z,16.70
2022-10-22T14:30:00.698Z,16.50
2022-10-22T14:32:33.567Z,15.20
2022-10-22T14:35:05.348Z,17.30
2022-10-22T14:37:36.893Z,17.50
2022-10-22T14:40:13.446Z,15.40
2022-10-22T14:42:47.570Z,18.50
2022-10-22T14:45:23.140Z,17.80
2022-10-22T14:47:56.039Z,18.20
2022-10-22T14:50:28.004Z,18.30
2022-10-22T14:53:00.688Z,17.40
2022-10-22T14:55:32.604Z,20.80
2022-10-22T14:58:04.202Z,19.90
2022-10-22T15:00:36.909Z,17.30
2022-10-22T15:03:08.660Z,19.50
2022-10-22T15:05:44.857Z,19.20
2022-10-22T15:08:17.719Z,20.80
2022-10-22T15:10:57.935Z,21.80
2022-10-22T15:13:30.134Z,18.30
2022-10-22T15:16:03.052Z,22.80
2022-10-22T15:18:34.687Z,23.50
2022-10-22T15:21:09.125Z,20.50
2022-10-22T15:23:41.242Z,22.30
2022-10-22T15:26:14.075Z,22.80
2022-10-22T15:28:45.811Z,23.80
2022-10-22T15:31:38.368Z,21.90
2022-10-22T15:34:09.913Z,22.60
2022-10-22T15:36:41.469Z,23.50
2022-10-22T15:39:13.504Z,25.90
2022-10-22T15:41:45.043Z,25.00
2022-10-22T15:44:21.654Z,29.60
2022-10-22T15:46:54.881Z,25.20
2022-10-22T15:49:29.193Z,28.20
2022-10-22T15:52:00.723Z,25.90
2022-10-22T15:54:33.010Z,26.50
2022-10-22T15:57:08.687Z,26.10
2022-10-22T15:59:42.993Z,26.40
2022-10-22T16:02:15.983Z,26.30
2022-10-22T16:04:48.154Z,28.80
2022-10-22T16:07:22.538Z,25.70
2022-10-22T16:10:00.324Z,27.70
2022-10-22T16:12:32.754Z,28.60
2022-10-22T16:15:04.721Z,27.00
2022-10-22T16:17:36.471Z,28.30
2022-10-22T16:20:10.188Z,26.20
2022-10-22T16:25:12.780Z,29.70
2022-10-22T16:27:44.317Z,29.30
2022-10-22T16:30:16.576Z,27.10
2022-10-22T16:32:48.162Z,25.40
2022-10-22T16:35:19.826Z,26.60
2022-10-22T16:37:51.474Z,29.60
2022-10-22T16:40:23.755Z,33.90
2022-10-22T16:42:55.606Z,31.60
2022-10-22T16:45:27.283Z,31.00
2022-10-22T16:47:58.930Z,31.80
2022-10-22T16:50:30.783Z,31.80
2022-10-22T16:53:02.451Z,31.00
2022-10-22T16:55:38.922Z,29.80
2022-10-22T16:58:10.684Z,27.90
2022-10-22T17:00:42.458Z,31.10
2022-10-22T17:03:14.909Z,30.60
2022-10-22T17:05:47.601Z,33.80
2022-10-22T17:08:20.387Z,36.90
2022-10-22T17:10:52.153Z,38.00
2022-10-22T17:13:23.803Z,37.00
2022-10-22T17:16:01.811Z,38.90
2022-10-22T17:18:35.545Z,39.20
2022-10-22T17:21:09.402Z,40.10
2022-10-22T17:26:17.629Z,35.50
2022-10-22T17:28:50.746Z,37.40
2022-10-22T17:31:24.844Z,37.10
2022-10-22T17:34:00.226Z,37.50
2022-10-22T17:36:35.652Z,41.90
2022-10-22T17:39:09.356Z,41.50
2022-10-22T17:41:40.760Z,40.30
2022-10-22T17:44:16.814Z,38.20
2022-10-22T17:46:49.735Z,43.40
2022-10-22T17:49:22.540Z,35.40
2022-10-22T17:51:54.129Z,37.20
2022-10-22T17:54:25.677Z,35.30
2022-10-22T17:56:57.197Z,35.30
2022-10-22T17:59:28.751Z,35.90
2022-10-22T18:02:02.295Z,42.00
2022-10-22T18:04:35.342Z,42.60
2022-10-22T18:07:06.868Z,49.40
2022-10-22T18:09:40.139Z,46.10
2022-10-22T18:12:13.708Z,46.70
2022-10-22T18:14:46.404Z,38.20
2022-10-22T18:17:17.895Z,40.00
2022-10-22T18:19:50.731Z,39.30
2022-10-22T18:22:22.227Z,39.80
2022-10-22T18:24:53.733Z,45.20
2022-10-22T18:27:25.368Z,46.00
2022-10-22T18:29:56.865Z,42.70
2022-10-22T18:32:28.362Z,45.90
2022-10-22T18:34:59.861Z,44.50
2022-10-22T18:37:31.961Z,40.70
2022-10-22T18:40:03.430Z,41.70
2022-10-22T18:42:39.755Z,44.50
2022-10-22T18:45:13.007Z,40.00
2022-10-22T18:47:44.819Z,51.60
2022-10-22T18:50:16.488Z,44.10
2022-10-22T18:52:47.992Z,36.90
2022-10-22T18:55:19.577Z,41.50
2022-10-22T18:57:51.094Z,36.70
2022-10-22T19:00:22.809Z,39.10
2022-10-22T19:02:54.927Z,37.80
2022-10-22T19:05:26.471Z,36.20
2022-10-22T19:07:57.947Z,38.60
2022-10-22T19:10:29.340Z,43.00
2022-10-22T19:13:00.724Z,46.60
2022-10-22T19:15:32.458Z,49.30
2022-10-22T19:18:04.055Z,47.00
2022-10-22T19:20:35.837Z,47.50
2022-10-22T19:23:08.321Z,46.70
2022-10-22T19:25:40.107Z,45.90
2022-10-22T19:28:11.554Z,40.70
2022-10-22T19:30:44.718Z,42.70
2022-10-22T19:33:16.134Z,40.70
2022-10-22T19:35:47.734Z,38.20
2022-10-22T19:38:19.257Z,43.20
2022-10-22T19:40:51.347Z,40.40
2022-10-22T19:43:23.779Z,40.80
2022-10-22T19:45:55.196Z,37.40
2022-10-22T19:48:28.697Z,36.90
2022-10-22T19:51:04.958Z,35.40
2022-10-22T19:53:37.923Z,35.70
2022-10-22T19:56:12.152Z,32.90
2022-10-22T19:58:43.688Z,34.90
2022-10-22T20:01:17.563Z,32.20
2022-10-22T20:03:50.778Z,36.10
2022-10-22T20:06:22.982Z,36.30
2022-10-22T20:08:56.144Z,35.20
2022-10-22T20:11:30.156Z,36.80
2022-10-22T20:14:02.297Z,35.80
2022-10-22T20:16:36.360Z,34.50
2022-10-22T20:19:11.117Z,34.60
2022-10-22T20:21:43.309Z,32.70
2022-10-22T20:24:15.250Z,35.30
2022-10-22T20:26:49.070Z,34.40
2022-10-22T20:29:20.637Z,30.90
2022-10-22T20:31:52.323Z,38.20
2022-10-22T20:34:23.695Z,38.70
2022-10-22T20:36:55.250Z,37.70
2022-10-22T20:39:26.809Z,36.00
2022-10-22T20:41:58.364Z,36.40
2022-10-22T20:44:30.362Z,37.50
2022-10-22T20:47:01.795Z,30.90
2022-10-22T20:49:33.890Z,33.20
2022-10-22T20:52:05.413Z,35.10
2022-10-22T20:54:41.386Z,30.90
2022-10-22T20:57:14.316Z,37.10
2022-10-22T20:59:46.341Z,37.10
2022-10-22T21:02:18.309Z,37.30
2022-10-22T21:04:49.710Z,36.80
2022-10-22T21:07:21.106Z,37.50
2022-10-22T21:09:52.553Z,35.70
2022-10-22T21:12:24.095Z,34.50
2022-10-22T21:14:55.627Z,34.70
2022-10-22T21:17:27.117Z,36.50
2022-10-22T21:19:58.735Z,34.10
2022-10-22T21:22:30.340Z,35.00
2022-10-22T21:25:01.735Z,40.40
2022-10-22T21:27:33.207Z,41.90
2022-10-22T21:30:05.514Z,40.10
2022-10-22T21:32:36.960Z,38.10
2022-10-22T21:35:09.592Z,38.20
2022-10-22T21:37:41.210Z,40.30
2022-10-22T21:40:14.903Z,38.60
2022-10-22T21:42:46.544Z,38.80
2022-10-22T21:45:22.109Z,36.30
2022-10-22T21:47:54.092Z,37.70
2022-10-22T21:50:25.524Z,43.30
2022-10-22T21:52:56.954Z,43.60
2022-10-22T21:55:30.428Z,40.70
2022-10-22T21:58:01.867Z,41.10
2022-10-22T22:00:33.465Z,37.80
2022-10-22T22:03:07.882Z,39.70
2022-10-22T22:05:39.827Z,38.10
2022-10-22T22:08:11.263Z,36.40
2022-10-22T22:10:43.439Z,36.50
2022-10-22T22:13:17.833Z,34.60
2022-10-22T22:15:49.213Z,32.10
2022-10-22T22:18:21.520Z,35.50
2022-10-22T22:20:52.961Z,35.70
2022-10-22T22:23:24.428Z,33.40
2022-10-22T22:25:59.096Z,35.30
2022-10-22T22:28:32.217Z,31.00
2022-10-22T22:31:13.026Z,31.20
2022-10-22T22:33:45.008Z,26.80
2022-10-22T22:36:16.574Z,31.10
2022-10-22T22:38:48.119Z,31.50
2022-10-22T22:41:19.521Z,31.50
2022-10-22T22:43:51.023Z,33.40
2022-10-22T22:46:22.521Z,35.80
2022-10-22T22:48:53.935Z,32.40
2022-10-22T22:51:25.673Z,33.60
2022-10-22T22:53:57.811Z,32.80
2022-10-22T22:56:31.481Z,31.30
2022-10-22T23:01:35.329Z,32.10
2022-10-22T23:04:13.512Z,30.80
2022-10-22T23:06:45.228Z,30.10
2022-10-22T23:11:55.350Z,34.30
2022-10-22T23:14:26.756Z,34.10
2022-10-22T23:16:58.134Z,32.60
2022-10-22T23:19:29.584Z,29.50
2022-10-22T23:22:00.963Z,29.40
2022-10-22T23:24:32.566Z,29.80
2022-10-22T23:27:05.565Z,28.40
2022-10-22T23:29:37.448Z,28.60
2022-10-22T23:32:15.217Z,31.00
2022-10-22T23:34:46.585Z,27.90
2022-10-22T23:37:18.036Z,33.50
2022-10-22T23:39:49.485Z,30.90
2022-10-22T23:42:20.899Z,28.40
2022-10-22T23:44:52.337Z,30.20
2022-10-22T23:47:23.871Z,29.60
2022-10-22T23:49:55.237Z,28.00
2022-10-22T23:52:27.983Z,27.40
2022-10-22T23:54:59.409Z,26.10
2022-10-22T23:57:30.811Z,24.80
